Time;durP1;ratioP1;P1;durP2;ratioP2;P2;SDS_P1;SDS_P2;PMS_P1;PMS_P2;Temp;Humidity;BMP_temperature;BMP_pressure;BME280_temperature;BME280_humidity;BME280_pressure;Samples;Min_cycle;Max_cycle;Signal;HPM_P1;HPM_P2
2021/06/04 00:00:21;;;;;;;55.22;37.00;;;17.90;99.90;;;;;;6167522;23;20481;-78
2021/06/04 00:02:48;;;;;;;54.45;35.92;;;17.80;99.90;;;;;;6193231;23;20017;-79
2021/06/04 00:05:17;;;;;;;56.05;36.65;;;17.80;99.90;;;;;;6194913;23;20438;-81
2021/06/04 00:07:43;;;;;;;48.55;35.63;;;17.70;99.90;;;;;;6194563;23;20493;-79
2021/06/04 00:10:16;;;;;;;51.22;35.40;;;17.60;99.90;;;;;;6168994;23;20047;-79
2021/06/04 00:12:42;;;;;;;51.22;34.42;;;17.60;99.90;;;;;;6133973;23;20013;-78
2021/06/04 00:15:15;;;;;;;53.17;35.88;;;17.60;99.90;;;;;;6158113;23;20051;-79
2021/06/04 00:17:42;;;;;;;52.08;36.28;;;17.50;99.90;;;;;;6156960;23;20017;-77
2021/06/04 00:20:15;;;;;;;54.70;35.45;;;17.60;99.90;;;;;;6157878;23;20024;-80
2021/06/04 00:22:41;;;;;;;50.35;33.97;;;17.60;99.90;;;;;;6192002;23;20084;-80
2021/06/04 00:25:07;;;;;;;54.40;35.03;;;17.60;99.90;;;;;;6132718;23;20037;-78
2021/06/04 00:27:33;;;;;;;49.83;35.53;;;17.50;99.90;;;;;;6163197;23;20068;-78
2021/06/04 00:29:59;;;;;;;51.72;35.95;;;17.50;99.90;;;;;;6194060;23;20025;-79
2021/06/04 00:32:25;;;;;;;51.10;35.65;;;17.50;99.90;;;;;;6166736;23;20098;-79
2021/06/04 00:34:52;;;;;;;51.25;35.53;;;17.50;99.90;;;;;;6133109;23;20015;-79
2021/06/04 00:37:19;;;;;;;50.17;34.65;;;17.50;99.90;;;;;;6193149;23;20013;-78
2021/06/04 00:39:45;;;;;;;54.08;34.95;;;17.50;99.90;;;;;;6167529;23;20383;-78
2021/06/04 00:42:18;;;;;;;51.67;36.70;;;17.40;99.90;;;;;;6155898;23;20020;-79
2021/06/04 00:44:47;;;;;;;48.67;34.83;;;17.30;99.90;;;;;;6193821;23;20036;-78
2021/06/04 00:47:13;;;;;;;50.70;35.55;;;17.30;99.90;;;;;;6165898;23;20024;-79
2021/06/04 00:49:40;;;;;;;56.95;38.63;;;17.10;99.90;;;;;;6157982;23;20100;-80
2021/06/04 00:52:14;;;;;;;57.55;38.63;;;17.10;99.90;;;;;;6166091;23;20017;-80
2021/06/04 00:54:43;;;;;;;53.28;38.28;;;17.00;99.90;;;;;;6157858;23;20041;-80
2021/06/04 00:57:10;;;;;;;53.95;38.03;;;17.00;99.90;;;;;;6164434;23;20434;-80
2021/06/04 00:59:39;;;;;;;54.22;37.65;;;17.00;99.90;;;;;;6167485;23;20016;-81
2021/06/04 01:02:09;;;;;;;60.67;37.67;;;16.90;99.90;;;;;;6166645;23;20013;-80
2021/06/04 01:04:35;;;;;;;59.53;36.75;;;17.00;99.90;;;;;;6182858;23;20045;-79
2021/06/04 01:07:07;;;;;;;55.88;39.10;;;17.10;99.90;;;;;;6155653;23;20047;-80
2021/06/04 01:09:58;;;;;;;60.55;39.60;;;17.10;99.90;;;;;;6156543;23;20096;-79
2021/06/04 01:12:51;;;;;;;59.85;38.53;;;17.20;99.90;;;;;;6189001;23;20017;-79
2021/06/04 01:15:35;;;;;;;68.20;40.33;;;17.20;99.90;;;;;;6131409;23;20657;-78
2021/06/04 01:18:25;;;;;;;61.75;41.17;;;17.10;99.90;;;;;;6157320;23;20323;-78
2021/06/04 01:20:57;;;;;;;56.90;38.83;;;17.20;99.90;;;;;;6157708;23;20091;-78
2021/06/04 01:23:48;;;;;;;61.35;41.13;;;17.20;99.90;;;;;;6182475;23;20013;-79
2021/06/04 01:26:42;;;;;;;60.03;40.30;;;17.20;99.90;;;;;;6166576;23;20013;-81
2021/06/04 01:29:19;;;;;;;72.53;43.97;;;17.10;99.90;;;;;;6148411;23;20021;-79
2021/06/04 01:31:56;;;;;;;66.45;43.00;;;17.10;99.90;;;;;;6131817;23;20391;-80
2021/06/04 01:34:48;;;;;;;70.55;42.40;;;17.10;99.90;;;;;;6156730;23;20414;-81
2021/06/04 01:37:20;;;;;;;69.40;43.85;;;17.00;99.90;;;;;;6181680;23;20729;-77
2021/06/04 01:39:51;;;;;;;66.60;42.53;;;17.00;99.90;;;;;;6192632;23;20013;-76
2021/06/04 01:42:21;;;;;;;62.92;41.55;;;16.90;99.90;;;;;;6163931;23;20016;-79
2021/06/04 01:44:55;;;;;;;60.03;40.08;;;16.90;99.90;;;;;;6165799;23;20017;-78
2021/06/04 01:47:28;;;;;;;69.20;42.33;;;16.90;99.90;;;;;;6191913;23;20009;-79
2021/06/04 01:49:56;;;;;;;61.33;40.47;;;16.80;99.90;;;;;;6192895;23;20028;-80
2021/06/04 01:52:27;;;;;;;65.07;40.15;;;16.60;99.90;;;;;;6191735;23;20505;-78
2021/06/04 01:54:58;;;;;;;57.05;39.25;;;16.70;99.90;;;;;;6182051;23;20020;-77
2021/06/04 01:57:28;;;;;;;65.43;38.42;;;16.60;99.90;;;;;;6154692;23;20071;-81
2021/06/04 01:59:55;;;;;;;57.35;38.70;;;16.60;99.90;;;;;;6166629;23;20452;-79
2021/06/04 02:02:28;;;;;;;58.65;38.38;;;16.60;99.90;;;;;;6192095;23;20024;-79
2021/06/04 02:04:55;;;;;;;56.30;38.05;;;16.50;99.90;;;;;;6182067;23;20382;-78
2021/06/04 02:07:30;;;;;;;52.97;36.60;;;16.50;99.90;;;;;;6165212;23;20437;-78
2021/06/04 02:09:58;;;;;;;52.22;37.38;;;16.50;99.90;;;;;;6192593;23;20016;-78
2021/06/04 02:12:24;;;;;;;54.15;38.17;;;16.40;99.90;;;;;;6189736;23;20017;-77
2021/06/04 02:15:04;;;;;;;54.45;36.67;;;16.40;99.90;;;;;;6193475;23;20009;-80
2021/06/04 02:17:59;;;;;;;59.42;38.47;;;16.30;99.90;;;;;;6193181;23;20020;-76
2021/06/04 02:20:40;;;;;;;60.17;39.30;;;16.30;99.90;;;;;;6192259;23;20036;-78
2021/06/04 02:23:25;;;;;;;60.53;39.03;;;16.30;99.90;;;;;;6196954;23;20021;-78
2021/06/04 02:26:03;;;;;;;59.75;38.85;;;16.30;99.90;;;;;;6199505;23;20017;-76
2021/06/04 02:28:35;;;;;;;56.38;37.85;;;16.20;99.90;;;;;;6171956;23;20051;-76
2021/06/04 02:31:19;;;;;;;60.28;39.95;;;16.20;99.90;;;;;;6169634;23;20055;-77
2021/06/04 02:33:57;;;;;;;58.60;38.17;;;16.10;99.90;;;;;;6156611;23;20021;-77
2021/06/04 02:36:28;;;;;;;58.28;38.35;;;16.10;99.90;;;;;;6158879;23;20099;-78
2021/06/04 02:39:03;;;;;;;59.80;40.33;;;16.00;99.90;;;;;;6155002;23;20033;-79
2021/06/04 02:41:36;;;;;;;56.90;38.70;;;16.00;99.90;;;;;;6192130;23;20028;-79
2021/06/04 02:44:19;;;;;;;58.45;40.75;;;15.90;99.90;;;;;;6181869;23;20418;-80
2021/06/04 02:46:50;;;;;;;54.47;38.30;;;15.90;99.90;;;;;;6156903;23;20039;-79
2021/06/04 02:49:19;;;;;;;54.00;38.60;;;15.90;99.90;;;;;;6179278;23;20039;-80
2021/06/04 02:52:09;;;;;;;53.05;36.25;;;15.90;99.90;;;;;;6191895;23;20013;-80
2021/06/04 02:54:39;;;;;;;48.67;35.75;;;15.80;99.90;;;;;;6191100;23;20013;-81
2021/06/04 02:57:12;;;;;;;50.67;35.78;;;15.80;99.90;;;;;;6181694;23;20027;-80
2021/06/04 02:59:42;;;;;;;50.65;35.83;;;15.80;99.90;;;;;;6192114;23;20389;-79
2021/06/04 03:02:17;;;;;;;51.35;35.97;;;15.70;99.90;;;;;;6179396;23;20017;-80
2021/06/04 03:04:49;;;;;;;51.88;36.17;;;15.70;99.90;;;;;;6185803;23;20016;-79
2021/06/04 03:07:27;;;;;;;50.03;34.95;;;15.70;99.90;;;;;;6128315;23;20104;-77
2021/06/04 03:09:55;;;;;;;54.05;35.63;;;15.70;99.90;;;;;;6190110;23;20092;-78
2021/06/04 03:12:31;;;;;;;52.47;36.92;;;15.70;99.90;;;;;;6182088;23;20016;-80
2021/06/04 03:14:59;;;;;;;56.17;36.58;;;15.70;99.90;;;;;;6181785;23;20071;-79
2021/06/04 03:17:28;;;;;;;50.60;35.13;;;15.60;99.90;;;;;;6192482;23;20564;-78
2021/06/04 03:19:54;;;;;;;57.38;36.47;;;15.60;99.90;;;;;;6155998;23;20109;-79
2021/06/04 03:22:32;;;;;;;56.30;38.38;;;15.70;99.90;;;;;;6191888;23;20009;-78
2021/06/04 03:25:13;;;;;;;52.67;37.28;;;15.70;99.90;;;;;;6155470;23;20021;-80
2021/06/04 03:27:39;;;;;;;54.60;37.90;;;15.70;99.90;;;;;;6189045;23;20055;-77
2021/06/04 03:30:07;;;;;;;59.95;40.05;;;15.70;99.90;;;;;;6154834;23;20021;-79
2021/06/04 03:32:33;;;;;;;61.15;38.35;;;15.70;99.90;;;;;;6190969;23;20009;-78
2021/06/04 03:34:59;;;;;;;55.03;37.65;;;15.70;99.90;;;;;;6191784;23;20440;-79
2021/06/04 03:37:28;;;;;;;55.47;37.42;;;15.80;99.90;;;;;;6191673;23;20071;-77
2021/06/04 03:39:54;;;;;;;58.35;40.08;;;15.80;99.90;;;;;;6157503;23;20013;-78
2021/06/04 03:42:28;;;;;;;55.97;38.03;;;15.80;99.90;;;;;;6191977;23;20013;-80
2021/06/04 03:44:55;;;;;;;55.80;36.97;;;15.80;99.90;;;;;;6167524;23;20016;-76
2021/06/04 03:47:22;;;;;;;56.17;38.92;;;15.80;99.90;;;;;;6157470;23;20032;-79
2021/06/04 03:49:48;;;;;;;53.40;36.90;;;15.90;99.90;;;;;;6157207;23;20021;-78
2021/06/04 03:52:17;;;;;;;53.40;36.53;;;15.90;99.90;;;;;;6192949;23;20021;-78
2021/06/04 03:54:46;;;;;;;58.92;38.33;;;15.90;99.90;;;;;;6191748;23;20026;-78
2021/06/04 03:57:28;;;;;;;56.53;38.65;;;15.90;99.90;;;;;;6157103;23;20021;-79
2021/06/04 03:59:55;;;;;;;44.42;32.03;;;16.00;99.90;;;;;;6193696;23;20017;-78
2021/06/04 04:02:24;;;;;;;46.75;33.03;;;16.00;99.90;;;;;;6193623;23;20091;-79
2021/06/04 04:04:55;;;;;;;54.97;35.90;;;16.00;99.90;;;;;;6156202;23;20075;-78
2021/06/04 04:07:21;;;;;;;59.17;37.85;;;16.10;99.90;;;;;;6162507;23;20019;-80
2021/06/04 04:09:47;;;;;;;48.97;34.30;;;16.20;99.90;;;;;;6151834;23;20457;-79
2021/06/04 04:12:13;;;;;;;29.20;21.00;;;16.20;99.90;;;;;;6163081;23;20009;-79
2021/06/04 04:14:39;;;;;;;31.30;23.73;;;16.30;99.90;;;;;;6161897;23;20010;-79
2021/06/04 04:17:08;;;;;;;37.20;25.92;;;16.80;99.90;;;;;;6151487;23;20299;-79
2021/06/04 04:19:34;;;;;;;40.40;27.88;;;17.10;99.90;;;;;;6127162;23;20350;-79
2021/06/04 04:22:00;;;;;;;37.60;27.05;;;17.30;99.90;;;;;;6126808;23;20017;-80
2021/06/04 04:24:32;;;;;;;40.92;27.50;;;17.70;99.90;;;;;;6162735;23;20108;-80
2021/06/04 04:26:59;;;;;;;41.95;27.70;;;17.90;99.90;;;;;;6126835;23;20018;-79
2021/06/04 04:29:25;;;;;;;43.05;26.73;;;18.30;99.90;;;;;;6152761;23;20013;-79
2021/06/04 04:31:56;;;;;;;37.90;27.08;;;18.70;99.90;;;;;;6127327;23;20017;-78
2021/06/04 04:34:25;;;;;;;42.42;28.27;;;19.20;99.90;;;;;;6162511;23;20391;-81
2021/06/04 04:36:55;;;;;;;40.08;27.55;;;19.50;99.90;;;;;;6127584;23;20013;-80
2021/06/04 04:39:26;;;;;;;40.53;26.75;;;19.80;99.90;;;;;;6128111;23;20052;-79
2021/06/04 04:41:54;;;;;;;39.75;27.92;;;20.00;99.90;;;;;;6162317;23;20013;-80
2021/06/04 04:44:26;;;;;;;40.45;27.08;;;20.40;99.90;;;;;;6153772;23;20080;-80
2021/06/04 04:46:52;;;;;;;40.83;27.42;;;20.60;99.90;;;;;;6162591;23;20013;-80
2021/06/04 04:49:18;;;;;;;51.75;32.17;;;20.80;99.90;;;;;;6128143;23;20020;-81
2021/06/04 04:51:43;;;;;;;38.10;27.20;;;21.10;99.90;;;;;;6163884;23;20017;-81
2021/06/04 04:54:10;;;;;;;42.22;28.90;;;21.30;99.90;;;;;;6162156;23;20025;-79
2021/06/04 04:56:39;;;;;;;48.58;32.50;;;21.20;99.90;;;;;;6152744;23;20505;-80
2021/06/04 04:59:06;;;;;;;46.58;31.83;;;20.90;99.90;;;;;;6126982;23;20461;-82
2021/06/04 05:01:33;;;;;;;47.22;30.92;;;20.50;99.90;;;;;;6161981;23;20083;-82
2021/06/04 05:03:59;;;;;;;42.63;29.60;;;20.20;99.90;;;;;;6163346;23;20017;-80
2021/06/04 05:06:25;;;;;;;42.25;28.65;;;20.10;99.90;;;;;;6132274;23;20101;-80
2021/06/04 05:08:51;;;;;;;38.88;28.17;;;20.00;99.90;;;;;;6156241;23;20383;-78
2021/06/04 05:11:26;;;;;;;47.00;31.40;;;20.00;99.90;;;;;;6183537;23;20040;-81
2021/06/04 05:13:52;;;;;;;47.47;32.97;;;19.90;99.90;;;;;;6156757;23;20017;-81
2021/06/04 05:16:18;;;;;;;56.55;38.58;;;20.00;99.90;;;;;;6156741;23;20016;-80
2021/06/04 05:18:44;;;;;;;63.83;42.25;;;20.00;99.90;;;;;;6156730;23;20013;-79
2021/06/04 05:21:13;;;;;;;62.67;41.63;;;19.80;99.90;;;;;;6166645;23;20009;-79
2021/06/04 05:23:39;;;;;;;66.72;42.47;;;19.60;99.90;;;;;;6191014;23;20020;-76
2021/06/04 05:26:07;;;;;;;61.53;40.75;;;19.40;99.90;;;;;;6131031;23;20097;-76
2021/06/04 05:28:35;;;;;;;67.88;43.33;;;19.20;99.90;;;;;;6183293;23;20031;-78
2021/06/04 05:31:05;;;;;;;71.07;45.95;;;19.20;99.90;;;;;;6193488;23;20344;-78
2021/06/04 05:33:35;;;;;;;73.55;47.05;;;19.10;99.90;;;;;;6192915;23;20460;-79
2021/06/04 05:36:12;;;;;;;72.63;46.70;;;19.00;99.90;;;;;;6182964;23;20062;-79
2021/06/04 05:38:38;;;;;;;37.80;26.17;;;19.00;99.90;;;;;;6182508;23;20017;-81
2021/06/04 05:41:04;;;;;;;43.38;29.23;;;19.20;99.90;;;;;;6132303;23;20377;-79
2021/06/04 05:43:34;;;;;;;45.00;26.90;;;19.40;99.90;;;;;;6157503;23;20040;-82
2021/06/04 05:46:01;;;;;;;48.63;27.00;;;19.60;99.90;;;;;;6167018;23;20032;-79
2021/06/04 05:48:27;;;;;;;46.35;30.52;;;19.70;99.90;;;;;;6166937;23;20067;-82
2021/06/04 05:50:57;;;;;;;42.03;29.23;;;19.70;99.90;;;;;;6169724;23;20013;-81
2021/06/04 05:53:28;;;;;;;56.85;37.00;;;19.80;99.90;;;;;;6139567;23;20013;-81
2021/06/04 05:55:55;;;;;;;60.22;39.95;;;20.00;99.90;;;;;;6168539;23;20059;-77
2021/06/04 06:02:02;;;;;;;48.70;32.60;;;19.90;99.90;;;;;;6186284;23;20007;-78
2021/06/04 06:04:27;;;;;;;50.33;33.22;;;20.00;99.90;;;;;;6152425;23;20104;-75
2021/06/04 06:06:53;;;;;;;47.00;30.55;;;20.00;99.90;;;;;;6163767;23;20014;-79
2021/06/04 06:09:22;;;;;;;60.50;38.70;;;20.10;99.90;;;;;;6175725;23;20024;-80
2021/06/04 06:11:49;;;;;;;62.05;39.53;;;20.00;99.90;;;;;;6163823;23;20023;-79
2021/06/04 06:14:17;;;;;;;53.42;35.35;;;19.60;99.90;;;;;;6178986;23;20312;-79
2021/06/04 06:16:44;;;;;;;52.65;34.72;;;19.50;99.90;;;;;;6173425;23;20029;-78
2021/06/04 06:19:12;;;;;;;53.15;36.63;;;19.70;99.90;;;;;;6152460;23;20010;-78
2021/06/04 06:21:45;;;;;;;44.80;29.92;;;19.70;99.90;;;;;;6151035;23;20117;-78
2021/06/04 06:24:11;;;;;;;56.25;33.50;;;19.90;99.90;;;;;;6152302;23;20342;-77
2021/06/04 06:26:38;;;;;;;49.40;32.97;;;20.00;99.90;;;;;;6162463;23;20025;-76
2021/06/04 06:29:08;;;;;;;59.53;39.05;;;20.10;99.90;;;;;;6150971;23;20022;-77
2021/06/04 06:31:37;;;;;;;46.45;29.00;;;20.30;99.90;;;;;;6152597;23;20397;-77
2021/06/04 06:34:05;;;;;;;47.90;31.25;;;20.40;99.90;;;;;;6175517;23;20018;-78
2021/06/04 06:36:34;;;;;;;46.53;30.33;;;20.50;99.90;;;;;;6175480;23;20024;-77
2021/06/04 06:39:21;;;;;;;50.03;34.20;;;20.70;99.90;;;;;;6152283;23;20014;-77
2021/06/04 06:41:48;;;;;;;60.72;38.90;;;20.90;99.90;;;;;;6152390;23;20084;-77
2021/06/04 06:44:14;;;;;;;54.50;31.83;;;20.60;99.90;;;;;;6150940;23;20346;-78
2021/06/04 06:46:41;;;;;;;42.50;30.70;;;20.60;99.90;;;;;;6163766;23;20009;-77
2021/06/04 06:49:09;;;;;;;42.08;27.75;;;20.80;99.90;;;;;;6152643;23;20064;-77
2021/06/04 06:51:37;;;;;;;54.35;36.17;;;20.90;99.90;;;;;;6150141;23;20710;-78
2021/06/04 06:54:07;;;;;;;49.78;32.80;;;20.80;99.90;;;;;;6150111;23;20031;-77
2021/06/04 06:56:36;;;;;;;52.85;35.63;;;20.90;99.90;;;;;;6163739;23;20041;-80
2021/06/04 06:59:09;;;;;;;71.38;39.42;;;21.00;99.90;;;;;;6158289;23;20350;-80
2021/06/04 07:01:36;;;;;;;58.60;38.75;;;20.70;99.90;;;;;;6151884;23;20009;-79
2021/06/04 07:04:02;;;;;;;55.35;38.13;;;20.70;99.90;;;;;;6152119;23;20021;-79
2021/06/04 07:06:33;;;;;;;59.35;39.60;;;20.60;99.90;;;;;;6157444;23;20078;-80
2021/06/04 07:09:00;;;;;;;58.17;38.50;;;20.60;99.90;;;;;;6191431;23;20013;-80
2021/06/04 07:11:31;;;;;;;57.25;38.05;;;20.60;99.90;;;;;;6158122;23;20040;-81
2021/06/04 07:13:57;;;;;;;56.78;37.83;;;20.60;99.90;;;;;;6158537;23;20020;-79
2021/06/04 07:16:24;;;;;;;60.50;39.05;;;20.70;99.90;;;;;;6134738;23;20016;-80
2021/06/04 07:18:50;;;;;;;52.58;35.45;;;20.80;99.90;;;;;;6158940;23;20380;-80
2021/06/04 07:21:20;;;;;;;51.42;35.33;;;20.90;99.90;;;;;;6159101;23;20009;-81
2021/06/04 07:23:47;;;;;;;53.00;36.35;;;21.00;99.90;;;;;;6133350;23;20065;-79
2021/06/04 07:26:18;;;;;;;53.97;35.92;;;21.10;99.90;;;;;;6170479;23;20009;-81
2021/06/04 07:28:44;;;;;;;52.10;35.15;;;21.20;99.90;;;;;;6134421;23;20013;-80
2021/06/04 07:31:13;;;;;;;47.00;32.60;;;21.30;99.90;;;;;;6158595;23;20024;-81
2021/06/04 07:33:51;;;;;;;51.83;33.42;;;21.20;99.90;;;;;;6159326;23;20013;-79
2021/06/04 07:36:29;;;;;;;42.65;31.77;;;21.10;99.90;;;;;;6160097;23;20021;-80
2021/06/04 07:38:56;;;;;;;42.65;30.20;;;20.90;99.90;;;;;;6194446;23;20456;-80
2021/06/04 07:41:23;;;;;;;44.22;32.80;;;20.70;99.90;;;;;;6194918;23;20017;-80
2021/06/04 07:43:49;;;;;;;47.25;33.08;;;20.70;99.90;;;;;;6185158;23;20017;-81
2021/06/04 07:46:17;;;;;;;41.60;26.95;;;20.80;99.90;;;;;;6132384;23;20013;-82
2021/06/04 07:48:46;;;;;;;49.88;31.40;;;21.00;99.90;;;;;;6134876;23;20445;-80
2021/06/04 07:51:15;;;;;;;37.65;25.33;;;21.20;99.90;;;;;;6159285;23;20072;-81
2021/06/04 07:53:41;;;;;;;49.30;30.48;;;21.40;99.90;;;;;;6195132;23;20013;-80
2021/06/04 07:56:11;;;;;;;38.58;27.88;;;21.40;99.90;;;;;;6157714;23;20041;-84
2021/06/04 07:58:37;;;;;;;42.45;26.40;;;21.50;99.90;;;;;;6158198;23;20009;-82
2021/06/04 08:01:05;;;;;;;40.25;28.52;;;21.70;99.90;;;;;;6168168;23;20024;-83
2021/06/04 08:03:32;;;;;;;36.42;26.25;;;21.70;99.90;;;;;;6158681;23;20428;-81
2021/06/04 08:05:58;;;;;;;67.32;27.20;;;21.60;99.90;;;;;;6177692;23;20028;-80
2021/06/04 08:08:24;;;;;;;37.45;24.65;;;21.70;99.90;;;;;;6176770;23;20330;-81
2021/06/04 08:10:50;;;;;;;34.47;24.40;;;21.90;99.90;;;;;;6153050;23;20104;-82
2021/06/04 08:13:19;;;;;;;43.20;28.85;;;22.00;99.90;;;;;;6177889;23;20017;-84
2021/06/04 08:16:01;;;;;;;40.42;28.45;;;21.90;99.90;;;;;;6154055;23;20445;-84
2021/06/04 08:18:31;;;;;;;42.53;29.45;;;21.80;99.90;;;;;;6178117;23;20390;-84
2021/06/04 08:21:06;;;;;;;37.90;25.98;;;21.70;99.90;;;;;;6153456;23;20012;-83
2021/06/04 08:23:47;;;;;;;40.30;25.50;;;21.80;99.90;;;;;;6179252;23;20068;-84
2021/06/04 08:26:22;;;;;;;41.72;29.70;;;21.90;99.90;;;;;;6153918;23;20022;-84
2021/06/04 08:28:48;;;;;;;37.55;27.02;;;21.90;99.90;;;;;;6153157;23;20016;-84
2021/06/04 08:31:16;;;;;;;39.17;28.60;;;22.00;99.90;;;;;;6153540;23;20017;-83
2021/06/04 08:33:43;;;;;;;40.10;26.85;;;21.90;99.90;;;;;;6153479;23;20017;-83
2021/06/04 08:36:13;;;;;;;42.75;29.92;;;21.90;99.90;;;;;;6154433;23;20020;-82
2021/06/04 08:38:41;;;;;;;37.00;24.52;;;22.00;99.90;;;;;;6164364;23;20009;-83
2021/06/04 08:41:41;;;;;;;41.08;27.63;;;22.10;99.90;;;;;;6177821;23;20058;-82
2021/06/04 08:44:25;;;;;;;39.90;28.15;;;22.30;99.90;;;;;;6178007;23;20017;-83
2021/06/04 08:47:16;;;;;;;39.17;28.10;;;22.60;99.90;;;;;;6153265;23;20025;-83
2021/06/04 08:49:45;;;;;;;35.63;24.60;;;22.60;99.90;;;;;;6153608;23;20096;-84
2021/06/04 08:52:32;;;;;;;44.25;27.35;;;22.80;99.90;;;;;;6153735;23;20123;-82
2021/06/04 08:55:01;;;;;;;43.47;30.20;;;23.00;99.90;;;;;;6153631;23;20017;-84
2021/06/04 08:57:46;;;;;;;41.53;28.20;;;22.90;99.90;;;;;;6153744;23;20026;-83
2021/06/04 09:00:23;;;;;;;56.38;30.90;;;23.00;99.90;;;;;;6155414;23;20032;-84
2021/06/04 09:02:56;;;;;;;44.72;29.45;;;22.90;99.90;;;;;;6153642;23;20335;-84
2021/06/04 09:05:31;;;;;;;39.33;29.88;;;23.00;99.90;;;;;;6182111;23;20187;-84
2021/06/04 09:07:57;;;;;;;37.22;29.60;;;23.20;99.90;;;;;;6156986;23;20020;-83
2021/06/04 09:10:41;;;;;;;41.53;28.58;;;23.20;99.90;;;;;;6157103;23;20013;-82
2021/06/04 09:13:23;;;;;;;39.00;27.00;;;23.20;99.90;;;;;;6157107;23;20013;-82
2021/06/04 09:15:56;;;;;;;32.92;26.13;;;23.20;99.90;;;;;;6132210;23;20013;-86
2021/06/04 09:18:32;;;;;;;55.05;28.75;;;23.20;99.90;;;;;;6181615;23;20021;-85
2021/06/04 09:21:11;;;;;;;38.25;27.13;;;22.90;99.90;;;;;;6192799;23;20013;-87
2021/06/04 09:23:40;;;;;;;39.93;28.73;;;22.90;99.90;;;;;;6157890;23;20068;-88
2021/06/04 09:26:13;;;;;;;40.67;29.30;;;22.80;99.90;;;;;;6158137;23;20017;-82
2021/06/04 09:28:48;;;;;;;44.15;30.77;;;22.70;99.90;;;;;;6159502;23;20337;-85
2021/06/04 09:31:32;;;;;;;40.95;29.05;;;22.60;99.90;;;;;;6161090;23;20073;-91
2021/06/04 09:34:09;;;;;;;37.65;28.33;;;22.60;99.90;;;;;;6186419;23;20009;-84
2021/06/04 09:36:49;;;;;;;46.75;29.73;;;23.10;99.90;;;;;;6160272;23;20017;-84
2021/06/04 09:39:32;;;;;;;39.90;28.38;;;23.20;99.90;;;;;;6188369;23;20029;-82
2021/06/04 09:42:19;;;;;;;37.38;27.42;;;23.30;99.90;;;;;;6200876;23;20009;-82
2021/06/04 09:44:57;;;;;;;40.10;29.30;;;23.40;99.90;;;;;;6159190;23;20368;-82
2021/06/04 09:47:39;;;;;;;38.78;28.85;;;23.40;99.90;;;;;;6182593;23;20020;-84
2021/06/04 09:50:36;;;;;;;34.55;26.48;;;23.40;99.90;;;;;;6183244;23;20024;-83
2021/06/04 09:53:13;;;;;;;41.75;29.05;;;23.60;99.90;;;;;;6183068;23;20210;-83
2021/06/04 09:55:51;;;;;;;41.22;30.48;;;23.60;99.90;;;;;;6195398;23;20143;-82
2021/06/04 09:58:20;;;;;;;40.38;29.05;;;23.50;99.90;;;;;;6158928;23;20024;-84
2021/06/04 10:00:55;;;;;;;42.72;29.30;;;23.70;99.90;;;;;;6168830;23;20504;-83
2021/06/04 10:03:31;;;;;;;49.58;31.60;;;23.70;99.90;;;;;;6132451;23;20329;-82
2021/06/04 10:06:09;;;;;;;39.00;29.20;;;23.70;99.90;;;;;;6181155;23;20025;-81
2021/06/04 10:08:45;;;;;;;45.63;31.30;;;23.70;99.90;;;;;;6157009;23;20067;-81
2021/06/04 10:11:26;;;;;;;41.47;29.42;;;23.90;99.90;;;;;;6183831;23;20068;-82
2021/06/04 10:17:37;;;;;;;38.58;28.70;;;24.30;99.90;;;;;;6157127;23;20017;-81
2021/06/04 10:20:18;;;;;;;36.40;28.35;;;24.20;99.90;;;;;;6184720;23;20083;-82
2021/06/04 10:22:45;;;;;;;39.60;28.23;;;24.50;99.90;;;;;;6157866;23;20079;-81
2021/06/04 10:25:11;;;;;;;39.35;29.23;;;24.80;99.90;;;;;;6157622;23;20013;-82
2021/06/04 10:27:45;;;;;;;39.97;29.70;;;24.50;99.90;;;;;;6155875;23;20504;-80
2021/06/04 10:30:21;;;;;;;41.90;29.25;;;24.50;99.90;;;;;;6183450;23;20446;-80
2021/06/04 10:33:04;;;;;;;38.60;29.23;;;24.50;99.90;;;;;;6185254;23;20024;-81
2021/06/04 10:36:03;;;;;;;40.22;28.33;;;24.30;99.90;;;;;;6215173;23;20017;-83
2021/06/04 10:38:46;;;;;;;40.40;29.10;;;24.40;99.90;;;;;;6194931;23;20013;-81
2021/06/04 10:41:15;;;;;;;35.10;25.73;;;24.50;99.90;;;;;;6192948;23;20013;-85
2021/06/04 10:44:01;;;;;;;36.83;25.20;;;24.80;99.90;;;;;;6195740;23;20441;-81
2021/06/04 10:47:01;;;;;;;42.00;24.38;;;25.20;99.90;;;;;;6159623;23;20077;-90
2021/06/04 10:49:51;;;;;;;34.72;24.05;;;25.50;99.90;;;;;;6096385;23;20024;-84
2021/06/04 10:52:42;;;;;;;36.00;25.00;;;25.60;99.90;;;;;;6069767;23;20030;-87
2021/06/04 10:55:29;;;;;;;34.47;24.63;;;26.10;99.90;;;;;;6070280;23;20021;-86
2021/06/04 10:58:21;;;;;;;35.53;26.05;;;26.00;99.90;;;;;;6094428;23;20170;-89
2021/06/04 11:04:48;;;;;;;40.72;26.05;;;26.00;99.70;;;;;;6096570;23;20465;-88
2021/06/04 11:07:21;;;;;;;36.30;26.15;;;25.40;99.90;;;;;;6093519;23;20176;-80
2021/06/04 11:10:10;;;;;;;34.78;25.58;;;25.50;99.90;;;;;;6094385;23;20061;-82
2021/06/04 11:13:13;;;;;;;37.33;25.48;;;25.60;99.70;;;;;;6093682;23;20018;-83
2021/06/04 11:15:54;;;;;;;31.13;21.70;;;25.60;99.60;;;;;;6094179;23;20148;-84
2021/06/04 11:18:39;;;;;;;31.98;24.70;;;26.00;99.60;;;;;;6069782;23;20045;-84
2021/06/04 11:21:17;;;;;;;33.70;24.58;;;26.20;99.30;;;;;;6104123;23;20018;-81
2021/06/04 11:23:50;;;;;;;35.65;26.25;;;26.50;99.30;;;;;;6102275;23;20018;-79
2021/06/04 11:26:52;;;;;;;35.37;27.87;;;26.30;99.50;;;;;;6106796;23;20009;-78
2021/06/04 11:29:35;;;;;;;36.15;28.38;;;26.60;98.70;;;;;;6098801;23;20029;-80
2021/06/04 11:32:16;;;;;;;39.63;28.75;;;26.30;99.10;;;;;;6093240;23;20025;-79
2021/06/04 11:34:59;;;;;;;38.25;27.42;;;26.30;98.60;;;;;;6103223;23;20027;-81
2021/06/04 11:37:56;;;;;;;38.38;24.20;;;26.70;99.20;;;;;;6093241;23;20153;-80
2021/06/04 11:40:36;;;;;;;31.60;23.80;;;26.80;98.50;;;;;;6104085;23;20526;-79
2021/06/04 11:43:25;;;;;;;39.53;30.25;;;26.50;97.80;;;;;;6103777;23;20018;-80
2021/06/04 11:46:13;;;;;;;39.22;31.73;;;27.00;97.60;;;;;;6094950;23;20049;-79
2021/06/04 11:48:41;;;;;;;38.13;32.60;;;26.80;97.90;;;;;;6093773;23;20018;-80
2021/06/04 11:51:19;;;;;;;43.08;33.72;;;27.00;98.30;;;;;;6092333;23;20023;-79
2021/06/04 11:53:53;;;;;;;41.53;33.30;;;27.00;98.40;;;;;;6092327;23;20018;-79
2021/06/04 11:56:59;;;;;;;39.53;30.75;;;27.10;98.50;;;;;;6093081;23;20015;-79
2021/06/04 11:59:46;;;;;;;39.45;31.70;;;27.10;97.80;;;;;;5982782;23;20110;-79
2021/06/04 12:02:30;;;;;;;39.40;30.48;;;27.30;97.90;;;;;;6006383;23;20127;-79
2021/06/04 12:05:05;;;;;;;;;;;27.80;97.80;;;;;;6014323;23;20023;-79
2021/06/04 12:07:43;;;;;;;40.20;31.52;;;28.00;97.60;;;;;;6067294;23;19921;-80
2021/06/04 12:10:12;;;;;;;40.67;30.55;;;28.20;97.20;;;;;;6073390;23;20492;-80
2021/06/04 12:12:52;;;;;;;39.25;31.65;;;28.50;97.30;;;;;;6072317;23;20015;-80
2021/06/04 12:15:20;;;;;;;41.33;31.33;;;28.60;97.30;;;;;;6063874;23;20095;-80
2021/06/04 12:17:46;;;;;;;32.97;27.60;;;28.60;96.40;;;;;;6073667;23;20019;-80
2021/06/04 12:20:21;;;;;;;36.53;29.58;;;29.00;96.80;;;;;;6063486;23;20034;-82
2021/06/04 12:22:53;;;;;;;38.55;27.38;;;29.10;95.00;;;;;;6062975;23;20043;-79
2021/06/04 12:25:47;;;;;;;31.40;24.50;;;28.50;94.20;;;;;;6039515;23;20015;-81
2021/06/04 12:28:18;;;;;;;;;;;28.10;94.00;;;;;;5978029;24;20039;-82
2021/06/04 12:30:56;;;;;;;31.88;26.58;;;28.10;95.30;;;;;;5988131;24;20680;-81
2021/06/04 12:33:40;;;;;;;28.63;24.92;;;28.50;94.50;;;;;;6016193;23;20018;-80
2021/06/04 12:36:40;;;;;;;28.77;20.63;;;28.10;94.20;;;;;;6063078;23;20023;-81
2021/06/04 12:39:21;;;;;;;23.55;20.50;;;28.30;94.70;;;;;;6062628;23;20018;-80
2021/06/04 12:41:50;;;;;;;26.60;23.33;;;28.50;94.30;;;;;;6073193;23;20021;-84
2021/06/04 12:44:16;;;;;;;27.10;23.77;;;28.50;94.50;;;;;;6040432;23;20022;-81
2021/06/04 12:46:47;;;;;;;26.42;23.52;;;28.70;93.70;;;;;;6065256;23;20102;-79
2021/06/04 12:49:13;;;;;;;25.33;22.58;;;28.10;94.30;;;;;;6049001;23;20027;-80
2021/06/04 12:51:44;;;;;;;25.52;22.42;;;28.20;93.90;;;;;;6070951;23;20070;-80
2021/06/04 12:54:12;;;;;;;23.65;21.08;;;28.10;93.80;;;;;;6063869;23;20015;-79
2021/06/04 12:56:47;;;;;;;21.50;19.20;;;28.50;94.00;;;;;;6040281;23;20019;-80
2021/06/04 12:59:16;;;;;;;22.52;16.77;;;28.60;93.20;;;;;;6040127;23;20385;-80
2021/06/04 13:01:56;;;;;;;18.92;13.50;;;28.80;92.40;;;;;;6039043;23;20019;-84
2021/06/04 13:04:35;;;;;;;20.55;16.80;;;29.10;90.80;;;;;;6089208;23;20410;-82
2021/06/04 13:07:02;;;;;;;16.45;14.75;;;29.20;91.50;;;;;;6153335;23;20435;-84
2021/06/04 13:10:20;;;;;;;23.15;18.52;;;29.30;91.20;;;;;;6176810;23;20019;-83